首页
METAR-TAF:

METAR-TAF

机场 :

埃德蒙顿, 艾伯塔, 加拿大

埃德蒙顿国际机场

纬度: 53-18N, 经度: 113-35W, 海拔: 715米

当前天气观测

该预报发布于1小时和9分钟前的23:00 UTC
风速5节,风向南转南东
温度 -1°C
湿度 69%
气压 1008 hPa
能見度: 24.1公里
散云层高于25000英尺

METAR: CYEG 172300Z 15005KT 15SM SCT250 M01/M06 A2977 RMK CI4 SLP112

时间: 17:09 (00:09 UTC)

预报

该预报发布于31分钟前的23:38 UTC
预报有效从18日的 00点(UTC)到 18日的 24点(UTC)
风速8节,风向南转南东
能見度: 10公里
多云层高于25000英尺
从 18日的 1600点(UTC)
风速15节,风向西南
能見度: 10公里
少量云层高于15000英尺

TAF: CYEG 172338Z 1800/1824 15008KT P6SM BKN250 FM181600 23015KT P6SM FEW150 RMK NXT FCST BY 180300Z

超过4000个机场的气象观测和天气预报(METAR&TAF报告)。

可查询的气象台以黄色和红色小点在地图上表示。

将鼠标移到小点上方,可查看气象台名称。

然后点击查看天气观测和预报。

如需切换地图:点击带黑十字的绿色按钮放大地图;点击带横线的绿色按钮缩小地图;或者点击绿色箭头查看邻近地区的地图。


METAR-TAF: